Lumaghi Heights, Illinois
Current Conditions -  °F | °C
As of 1:58 AM on Friday 31 Oct 2014 (Local Time) from KBLV Reporting Station
Broken Clouds Broken Clouds  
Wind Chill: 45°   Ceiling: 3500
Heat Index: 47°   Visibility: 10mi
Dew Point: 47°   Wind: 6mph
Humidity: 99%   Direction: 340°NNW
Pressure: 30.03"   Gusts: NA
Location:  38.6902°N, 89.9816°W
Report Text: KBLV 310658Z AUTO 34005KT 10SM BKN035 BKN130 09/08 A3003 RMK AO2 SLP172 T00850083
Loading
Personal Weather Stations






























Interactive Weather Map
Tropical Storm Tracking
New forecast layout! Learn more

10-Day Weather Forecast

Advertisements
Track Severe Weather on mobile